Time;durP1;ratioP1;P1;durP2;ratioP2;P2;SDS_P1;SDS_P2;PMS_P1;PMS_P2;Temp;Humidity;BMP_temperature;BMP_pressure;BME280_temperature;BME280_humidity;BME280_pressure;Samples;Min_cycle;Max_cycle;Signal;HPM_P1;HPM_P2
2022/07/11 00:01:46;;;;;;;0.60;0.60;;;24.70;35.10;;;;;;5067585;28;45255;-67
2022/07/11 00:04:13;;;;;;;1.20;0.70;;;24.70;35.30;;;;;;5067646;28;45252;-68
2022/07/11 00:06:39;;;;;;;0.63;0.63;;;24.70;35.20;;;;;;5067707;28;45220;-68
2022/07/11 00:09:06;;;;;;;0.77;0.70;;;24.60;35.30;;;;;;5067368;28;46955;-68
2022/07/11 00:11:33;;;;;;;0.65;0.65;;;24.60;35.30;;;;;;5064811;28;45067;-68
2022/07/11 00:14:00;;;;;;;0.85;0.85;;;24.60;35.30;;;;;;5067533;28;45185;-68
2022/07/11 00:16:28;;;;;;;0.80;0.80;;;24.60;35.30;;;;;;5067476;28;45232;-68
2022/07/11 00:18:55;;;;;;;0.82;0.82;;;24.50;35.30;;;;;;5067158;28;46385;-68
2022/07/11 00:21:22;;;;;;;0.60;0.60;;;24.50;35.30;;;;;;5067193;28;45365;-67
2022/07/11 00:23:48;;;;;;;0.73;0.73;;;24.50;35.40;;;;;;5067419;28;45229;-68
2022/07/11 00:26:15;;;;;;;1.30;0.80;;;24.50;35.40;;;;;;5067741;28;45264;-68
2022/07/11 00:28:42;;;;;;;0.68;0.68;;;24.50;35.50;;;;;;5067045;28;46419;-68
2022/07/11 00:31:10;;;;;;;1.17;0.68;;;24.50;35.50;;;;;;5066944;28;45252;-68
2022/07/11 00:33:38;;;;;;;0.98;0.57;;;24.50;35.50;;;;;;5066943;28;45500;-68
2022/07/11 00:36:05;;;;;;;0.70;0.70;;;24.50;35.40;;;;;;5067261;28;45178;-68
2022/07/11 00:38:32;;;;;;;1.38;0.60;;;24.50;35.50;;;;;;5066898;28;46837;-68
2022/07/11 00:40:59;;;;;;;1.48;0.60;;;24.50;35.50;;;;;;5066921;28;45385;-68
2022/07/11 00:43:30;;;;;;;0.70;0.55;;;24.40;35.60;;;;;;5067064;28;45323;-68
2022/07/11 00:45:57;;;;;;;1.30;0.73;;;24.40;35.50;;;;;;5066986;28;45371;-68
2022/07/11 00:48:24;;;;;;;0.50;0.50;;;24.40;35.60;;;;;;5066718;28;45361;-68
2022/07/11 00:50:52;;;;;;;0.57;0.57;;;24.40;35.60;;;;;;5066752;28;45313;-68
2022/07/11 00:53:20;;;;;;;0.55;0.52;;;24.40;35.60;;;;;;5066876;28;45197;-68
2022/07/11 00:55:46;;;;;;;0.60;0.60;;;24.40;35.70;;;;;;5066980;28;45188;-68
2022/07/11 00:58:13;;;;;;;1.40;0.73;;;24.40;35.70;;;;;;5066640;28;47420;-68
2022/07/11 01:00:40;;;;;;;1.10;0.60;;;24.30;35.70;;;;;;5066518;28;45403;-68
2022/07/11 01:03:07;;;;;;;0.70;0.70;;;24.30;35.80;;;;;;5046542;28;45253;-68
2022/07/11 01:05:34;;;;;;;0.77;0.70;;;24.30;35.70;;;;;;5046702;28;45177;-68
2022/07/11 01:08:02;;;;;;;1.48;0.75;;;24.30;35.80;;;;;;5046278;28;45485;-68
2022/07/11 01:10:29;;;;;;;0.55;0.55;;;24.30;35.80;;;;;;5046319;28;45347;-67
2022/07/11 01:12:55;;;;;;;0.60;0.60;;;24.30;35.80;;;;;;5046428;28;45255;-68
2022/07/11 01:15:22;;;;;;;1.45;0.60;;;24.30;35.90;;;;;;5046398;28;45242;-68
2022/07/11 01:17:49;;;;;;;0.88;0.60;;;24.30;35.80;;;;;;5046137;28;45242;-68
2022/07/11 01:20:16;;;;;;;1.70;0.80;;;24.20;35.90;;;;;;5046098;28;45332;-68
2022/07/11 01:22:46;;;;;;;0.80;0.73;;;24.20;35.90;;;;;;5046247;28;45302;-68
2022/07/11 01:25:29;;;;;;;0.60;0.60;;;24.20;36.00;;;;;;5046296;28;45286;-68
2022/07/11 01:27:56;;;;;;;0.60;0.60;;;24.10;35.90;;;;;;5046052;28;46292;-68
2022/07/11 01:30:23;;;;;;;1.20;0.60;;;24.10;36.00;;;;;;5064196;28;45403;-69
2022/07/11 01:32:51;;;;;;;0.60;0.60;;;24.10;36.00;;;;;;5066177;28;45300;-68
2022/07/11 01:35:18;;;;;;;0.73;0.73;;;24.10;36.00;;;;;;5066388;28;45251;-68
2022/07/11 01:37:45;;;;;;;1.17;0.70;;;24.10;36.10;;;;;;5063362;28;45236;-68
2022/07/11 01:40:13;;;;;;;0.70;0.70;;;24.10;36.10;;;;;;5065944;28;45310;-68
2022/07/11 01:42:40;;;;;;;1.20;0.68;;;24.10;36.20;;;;;;5065486;28;45269;-68
2022/07/11 01:45:08;;;;;;;1.35;0.70;;;24.10;36.20;;;;;;5066210;28;45255;-68
2022/07/11 01:47:35;;;;;;;0.95;0.70;;;24.00;36.10;;;;;;5065868;28;47360;-68
2022/07/11 01:50:02;;;;;;;0.68;0.60;;;24.00;36.20;;;;;;5065782;28;45236;-68
2022/07/11 01:52:29;;;;;;;0.60;0.60;;;24.00;36.20;;;;;;5063527;28;45299;-68
2022/07/11 01:54:55;;;;;;;1.42;0.68;;;24.00;36.20;;;;;;5066085;28;45240;-68
2022/07/11 01:57:24;;;;;;;1.00;0.70;;;24.00;36.30;;;;;;5065732;28;46561;-68
2022/07/11 01:59:50;;;;;;;0.60;0.57;;;24.00;36.30;;;;;;5065799;28;45390;-68
2022/07/11 02:02:17;;;;;;;0.65;0.65;;;24.00;36.40;;;;;;5065842;28;45462;-67
2022/07/11 02:04:44;;;;;;;1.25;0.82;;;23.90;36.40;;;;;;5066007;28;45383;-68
2022/07/11 02:07:11;;;;;;;0.60;0.60;;;23.90;36.40;;;;;;5065529;28;46398;-68
2022/07/11 02:09:38;;;;;;;0.70;0.60;;;23.90;36.40;;;;;;5065521;28;45272;-68
2022/07/11 02:12:06;;;;;;;1.33;0.82;;;23.90;36.40;;;;;;5065658;28;45254;-68
2022/07/11 02:14:34;;;;;;;0.95;0.60;;;23.90;36.40;;;;;;5065728;28;45236;-68
2022/07/11 02:17:01;;;;;;;1.27;0.68;;;23.90;36.50;;;;;;5065324;28;45269;-68
2022/07/11 02:19:28;;;;;;;0.95;0.68;;;23.90;36.40;;;;;;5065490;28;45271;-68
2022/07/11 02:21:55;;;;;;;0.60;0.60;;;23.80;36.50;;;;;;5065552;28;45332;-68
2022/07/11 02:24:22;;;;;;;0.50;0.50;;;23.80;36.50;;;;;;5065614;28;45400;-68
2022/07/11 02:26:48;;;;;;;1.65;0.70;;;23.80;36.40;;;;;;5065330;28;45232;-69
2022/07/11 02:29:22;;;;;;;0.60;0.60;;;23.80;36.40;;;;;;5065170;28;45245;-68
2022/07/11 02:31:50;;;;;;;1.92;0.65;;;23.80;36.50;;;;;;5065449;28;45266;-68
2022/07/11 02:34:16;;;;;;;0.63;0.47;;;23.80;37.10;;;;;;5065274;28;45197;-68
2022/07/11 02:36:43;;;;;;;1.17;0.65;;;23.70;36.50;;;;;;5065054;28;46709;-68
2022/07/11 02:39:10;;;;;;;0.63;0.60;;;23.70;36.40;;;;;;5065254;28;45248;-68
2022/07/11 02:41:37;;;;;;;1.17;0.70;;;23.70;36.50;;;;;;5065311;28;45323;-69
2022/07/11 02:44:04;;;;;;;0.70;0.70;;;23.70;36.60;;;;;;5065433;28;45355;-68
2022/07/11 02:46:32;;;;;;;0.90;0.68;;;23.70;36.60;;;;;;5065242;28;45254;-68
2022/07/11 02:49:00;;;;;;;0.90;0.60;;;23.70;36.50;;;;;;5065091;28;45259;-68
2022/07/11 02:51:27;;;;;;;0.60;0.60;;;23.60;36.40;;;;;;5065090;28;45308;-68
2022/07/11 02:53:53;;;;;;;0.60;0.60;;;23.60;36.50;;;;;;5065325;28;45264;-68
2022/07/11 02:56:20;;;;;;;0.85;0.85;;;23.60;36.50;;;;;;5068085;28;46384;-68
2022/07/11 02:58:47;;;;;;;0.70;0.70;;;23.60;36.60;;;;;;5068594;28;45142;-68
2022/07/11 03:01:14;;;;;;;0.60;0.60;;;23.60;36.70;;;;;;5068631;28;45220;-68
2022/07/11 03:03:41;;;;;;;0.57;0.57;;;23.50;36.60;;;;;;5068749;28;45397;-68
2022/07/11 03:06:09;;;;;;;1.38;0.60;;;23.50;36.70;;;;;;5068455;28;46647;-68
2022/07/11 03:08:36;;;;;;;0.88;0.65;;;23.50;36.70;;;;;;5068422;28;45280;-68
2022/07/11 03:11:03;;;;;;;1.50;0.60;;;23.50;36.70;;;;;;5068469;28;45254;-68
2022/07/11 03:13:30;;;;;;;0.47;0.47;;;23.50;36.90;;;;;;5068614;28;45299;-68
2022/07/11 03:15:56;;;;;;;0.95;0.80;;;23.50;37.40;;;;;;5068186;28;46409;-68
2022/07/11 03:18:23;;;;;;;0.80;0.80;;;23.40;36.90;;;;;;5068233;28;45345;-68
2022/07/11 03:20:50;;;;;;;0.60;0.60;;;23.40;36.90;;;;;;5068633;28;45270;-69
2022/07/11 03:23:18;;;;;;;0.75;0.70;;;23.40;36.90;;;;;;5068456;28;45289;-68
2022/07/11 03:25:45;;;;;;;0.80;0.68;;;23.40;36.90;;;;;;5067871;28;46642;-68
2022/07/11 03:28:12;;;;;;;0.70;0.70;;;23.40;37.00;;;;;;5068038;28;45400;-68
2022/07/11 03:30:39;;;;;;;0.80;0.80;;;23.40;37.00;;;;;;5068258;28;45273;-68
2022/07/11 03:33:06;;;;;;;0.95;0.60;;;23.40;37.00;;;;;;5066112;28;45170;-68
2022/07/11 03:35:41;;;;;;;0.70;0.70;;;23.40;37.00;;;;;;5067848;28;45219;-67
2022/07/11 03:38:08;;;;;;;0.60;0.60;;;23.30;37.70;;;;;;5068050;28;45271;-68
2022/07/11 03:40:36;;;;;;;0.50;0.50;;;23.30;37.10;;;;;;5068195;28;45339;-68
2022/07/11 03:43:04;;;;;;;0.65;0.65;;;23.30;37.10;;;;;;5068244;28;45298;-68
2022/07/11 03:45:30;;;;;;;0.50;0.50;;;23.30;37.10;;;;;;5067705;28;46624;-68
2022/07/11 03:47:57;;;;;;;0.52;0.52;;;23.20;37.00;;;;;;5067668;28;45995;-68
2022/07/11 03:50:24;;;;;;;1.38;1.00;;;23.20;37.10;;;;;;5067996;28;45226;-70
2022/07/11 03:52:52;;;;;;;1.13;0.52;;;23.20;37.10;;;;;;5068033;28;45361;-70
2022/07/11 03:55:19;;;;;;;1.73;0.60;;;23.20;37.20;;;;;;5067625;28;46614;-69
2022/07/11 03:57:47;;;;;;;0.57;0.57;;;23.20;37.70;;;;;;5067669;28;45175;-69
2022/07/11 04:00:14;;;;;;;0.60;0.60;;;23.20;37.10;;;;;;5067701;28;45239;-70
2022/07/11 04:02:41;;;;;;;0.73;0.73;;;23.20;37.20;;;;;;5067791;28;45536;-69
2022/07/11 04:05:08;;;;;;;0.52;0.52;;;23.20;37.20;;;;;;5067006;28;46495;-69
2022/07/11 04:07:35;;;;;;;0.60;0.60;;;23.20;37.30;;;;;;5067568;28;45260;-70
2022/07/11 04:10:02;;;;;;;1.08;0.60;;;23.10;37.20;;;;;;5067560;28;45213;-70
2022/07/11 04:12:29;;;;;;;0.60;0.60;;;23.10;37.20;;;;;;5067657;28;45177;-70
2022/07/11 04:14:57;;;;;;;1.00;0.70;;;23.10;37.30;;;;;;5067259;28;45476;-69
2022/07/11 04:17:24;;;;;;;0.70;0.70;;;23.10;37.20;;;;;;5067187;28;45350;-69
2022/07/11 04:19:51;;;;;;;0.70;0.65;;;23.10;37.20;;;;;;5067432;28;45252;-69
2022/07/11 04:22:18;;;;;;;1.13;0.70;;;23.00;37.20;;;;;;5067608;28;45178;-69
2022/07/11 04:24:45;;;;;;;0.63;0.60;;;23.10;37.30;;;;;;5067173;28;47360;-69
2022/07/11 04:27:12;;;;;;;2.13;0.77;;;23.00;37.30;;;;;;5067076;28;45284;-70
2022/07/11 04:29:39;;;;;;;0.70;0.70;;;23.00;37.30;;;;;;5067150;28;45347;-69
2022/07/11 04:32:08;;;;;;;0.60;0.60;;;23.00;37.40;;;;;;5067204;28;45534;-69
2022/07/11 04:34:35;;;;;;;0.60;0.60;;;23.00;37.30;;;;;;5066654;28;45530;-69
2022/07/11 04:37:01;;;;;;;0.50;0.50;;;23.00;37.30;;;;;;5066584;28;45609;-69
2022/07/11 04:39:28;;;;;;;0.70;0.70;;;23.00;37.40;;;;;;5066962;28;45248;-70
2022/07/11 04:41:55;;;;;;;1.77;0.60;;;23.00;37.40;;;;;;5067083;28;45403;-69
2022/07/11 04:44:22;;;;;;;0.50;0.50;;;22.90;37.40;;;;;;5066622;28;46728;-69
2022/07/11 04:46:49;;;;;;;0.80;0.75;;;23.00;37.40;;;;;;5066703;28;45223;-69
2022/07/11 04:49:18;;;;;;;1.67;0.80;;;23.00;37.50;;;;;;5066841;28;45318;-69
2022/07/11 04:51:45;;;;;;;0.60;0.60;;;22.90;37.40;;;;;;5066830;28;45629;-69
2022/07/11 04:54:12;;;;;;;0.70;0.70;;;22.90;37.50;;;;;;5066603;28;46404;-71
2022/07/11 04:56:39;;;;;;;0.70;0.70;;;22.90;37.50;;;;;;5066573;28;45266;-69
2022/07/11 04:59:05;;;;;;;0.60;0.60;;;22.90;37.40;;;;;;5066772;28;45368;-69
2022/07/11 05:01:32;;;;;;;0.75;0.70;;;22.90;37.50;;;;;;5066822;28;45237;-69
2022/07/11 05:03:59;;;;;;;0.50;0.50;;;22.90;37.60;;;;;;5066298;28;45501;-69
2022/07/11 05:06:27;;;;;;;0.70;0.70;;;22.90;37.50;;;;;;5066448;28;45264;-71
2022/07/11 05:08:55;;;;;;;0.60;0.60;;;22.90;37.50;;;;;;5066592;28;45207;-69
2022/07/11 05:11:23;;;;;;;0.70;0.70;;;22.90;37.60;;;;;;5066696;28;45315;-70
2022/07/11 05:13:49;;;;;;;0.77;0.70;;;22.90;37.60;;;;;;5066188;28;45404;-69
2022/07/11 05:16:16;;;;;;;0.60;0.60;;;22.90;37.60;;;;;;5066406;28;45197;-70
2022/07/11 05:18:43;;;;;;;0.65;0.60;;;22.90;37.60;;;;;;5065453;28;45211;-69
2022/07/11 05:21:10;;;;;;;1.75;1.00;;;22.90;37.70;;;;;;5066572;28;45267;-70
2022/07/11 05:23:38;;;;;;;0.75;0.75;;;22.90;37.50;;;;;;5066093;28;45470;-69
2022/07/11 05:26:05;;;;;;;0.80;0.65;;;22.90;37.60;;;;;;5066486;28;45279;-70
2022/07/11 05:28:32;;;;;;;1.27;0.80;;;22.90;37.60;;;;;;5066232;28;45201;-70
2022/07/11 05:30:59;;;;;;;0.65;0.65;;;22.90;37.50;;;;;;5066352;28;45322;-70
2022/07/11 05:33:26;;;;;;;0.60;0.50;;;22.90;37.70;;;;;;5065694;28;46977;-70
2022/07/11 05:35:52;;;;;;;0.55;0.45;;;22.90;37.60;;;;;;5066049;28;45267;-70
2022/07/11 05:38:19;;;;;;;0.93;0.63;;;22.90;37.60;;;;;;5066118;28;45308;-70
2022/07/11 05:40:48;;;;;;;0.50;0.50;;;22.90;37.60;;;;;;5066118;28;45433;-70
2022/07/11 05:43:15;;;;;;;0.95;0.80;;;22.90;38.20;;;;;;5065712;28;46690;-70
2022/07/11 05:45:42;;;;;;;1.05;0.75;;;22.90;38.30;;;;;;5065790;28;45291;-70
2022/07/11 05:48:09;;;;;;;0.60;0.60;;;22.90;37.80;;;;;;5065982;28;45304;-70
2022/07/11 05:50:35;;;;;;;0.57;0.57;;;22.90;37.70;;;;;;5066163;28;45331;-70
2022/07/11 05:53:03;;;;;;;1.15;0.70;;;22.90;37.70;;;;;;5065629;28;46629;-70
2022/07/11 05:55:30;;;;;;;0.75;0.75;;;22.90;37.80;;;;;;5065710;28;45282;-70
2022/07/11 05:57:58;;;;;;;1.38;0.70;;;22.90;37.80;;;;;;5065656;28;45324;-71
2022/07/11 06:00:27;;;;;;;2.13;1.00;;;22.90;38.40;;;;;;5065826;28;45282;-71
2022/07/11 06:02:54;;;;;;;2.67;1.00;;;22.90;39.70;;;;;;5065436;28;46517;-71
2022/07/11 06:05:21;;;;;;;1.60;0.90;;;22.80;41.40;;;;;;5065413;28;45509;-70
2022/07/11 06:10:33;;;;;;;1.50;1.00;;;22.70;42.70;;;;;;5062926;28;45349;-71
2022/07/11 06:13:01;;;;;;;1.92;0.90;;;22.60;43.10;;;;;;5065085;28;46697;-70
2022/07/11 06:15:28;;;;;;;2.00;0.90;;;22.60;43.70;;;;;;5065226;28;45205;-70
2022/07/11 06:17:55;;;;;;;1.20;1.10;;;22.60;44.00;;;;;;5065159;28;45210;-71
2022/07/11 06:20:22;;;;;;;1.38;1.10;;;22.50;44.50;;;;;;5065684;28;45367;-70
2022/07/11 06:22:49;;;;;;;2.95;1.05;;;22.50;44.80;;;;;;5065199;28;47651;-70
2022/07/11 06:25:16;;;;;;;0.80;0.80;;;22.50;45.10;;;;;;5065042;28;45308;-70
2022/07/11 06:27:42;;;;;;;1.95;1.10;;;22.50;45.10;;;;;;5065165;28;45284;-71
2022/07/11 06:30:11;;;;;;;1.02;0.98;;;22.40;45.30;;;;;;5064880;28;45389;-70
2022/07/11 06:32:40;;;;;;;1.13;1.00;;;22.40;45.60;;;;;;5064676;28;45423;-70
2022/07/11 06:35:08;;;;;;;0.70;0.70;;;22.40;45.80;;;;;;5063673;28;45374;-71
2022/07/11 06:37:35;;;;;;;1.25;1.00;;;22.40;46.00;;;;;;5064176;28;45321;-70
2022/07/11 06:40:02;;;;;;;1.70;0.90;;;22.40;46.30;;;;;;5065057;28;45411;-70
2022/07/11 06:42:28;;;;;;;0.80;0.80;;;22.40;46.10;;;;;;5064638;28;45392;-71
2022/07/11 06:44:55;;;;;;;1.95;0.98;;;22.40;46.20;;;;;;5063583;28;45303;-71
2022/07/11 06:47:23;;;;;;;1.75;1.10;;;22.40;46.20;;;;;;5065060;28;45226;-71
2022/07/11 06:49:50;;;;;;;1.70;1.00;;;22.40;47.00;;;;;;5065050;28;45283;-71
2022/07/11 06:52:17;;;;;;;2.38;1.25;;;22.40;47.00;;;;;;5063325;28;46401;-70
2022/07/11 06:54:44;;;;;;;3.83;1.02;;;22.40;46.70;;;;;;5062926;28;45363;-71
2022/07/11 06:57:11;;;;;;;1.50;0.95;;;22.40;47.20;;;;;;5064653;28;45280;-70
2022/07/11 06:59:37;;;;;;;0.90;0.90;;;22.40;47.20;;;;;;5064968;28;45448;-71
2022/07/11 07:02:04;;;;;;;2.70;1.00;;;22.40;47.20;;;;;;5064322;28;46673;-71
2022/07/11 07:04:33;;;;;;;0.90;0.90;;;22.50;47.00;;;;;;5064598;28;45216;-71
2022/07/11 07:07:01;;;;;;;1.63;1.08;;;22.40;47.00;;;;;;5061911;28;45372;-71
2022/07/11 07:09:28;;;;;;;3.47;1.20;;;22.50;47.20;;;;;;5064359;28;45400;-71
2022/07/11 07:11:55;;;;;;;2.88;1.10;;;22.40;47.60;;;;;;5064429;28;46337;-71
2022/07/11 07:14:22;;;;;;;4.25;1.00;;;22.50;47.50;;;;;;5064393;28;45279;-71
2022/07/11 07:16:49;;;;;;;2.15;1.10;;;22.50;47.40;;;;;;5064345;28;45246;-70
2022/07/11 07:19:16;;;;;;;2.53;1.40;;;22.50;47.20;;;;;;5063750;28;45311;-70
2022/07/11 07:21:45;;;;;;;2.08;0.95;;;22.50;46.90;;;;;;5064593;28;45430;-70
2022/07/11 07:24:12;;;;;;;4.32;1.25;;;22.50;47.20;;;;;;5064526;28;45256;-69
2022/07/11 07:26:38;;;;;;;1.08;0.98;;;22.50;47.20;;;;;;5064504;28;45334;-69
2022/07/11 07:29:05;;;;;;;1.00;1.00;;;22.50;46.80;;;;;;5064717;28;45265;-70
2022/07/11 07:31:32;;;;;;;2.60;1.17;;;22.50;46.60;;;;;;5064112;28;45464;-70
2022/07/11 07:33:59;;;;;;;1.80;1.10;;;22.50;46.70;;;;;;5063931;28;45239;-69
2022/07/11 07:36:26;;;;;;;1.02;0.90;;;22.60;46.20;;;;;;5064409;28;45166;-70
2022/07/11 07:38:54;;;;;;;6.63;0.95;;;22.60;46.00;;;;;;5064959;28;45324;-70
2022/07/11 07:41:21;;;;;;;1.48;0.80;;;22.60;45.40;;;;;;5065945;28;45339;-70
2022/07/11 07:43:48;;;;;;;2.85;0.75;;;22.60;45.40;;;;;;5068145;28;45446;-70
2022/07/11 07:46:15;;;;;;;1.95;0.80;;;22.70;45.30;;;;;;5068072;28;45221;-70
2022/07/11 07:48:42;;;;;;;2.47;1.00;;;22.70;44.80;;;;;;5068330;28;45334;-69
2022/07/11 07:51:09;;;;;;;1.42;0.70;;;22.70;45.40;;;;;;5068016;28;45498;-71
2022/07/11 07:53:36;;;;;;;1.98;0.90;;;22.70;45.30;;;;;;5067916;28;45223;-70
2022/07/11 07:56:05;;;;;;;5.57;0.90;;;22.80;45.80;;;;;;5068192;28;45221;-71
2022/07/11 07:58:32;;;;;;;0.95;0.80;;;22.80;44.80;;;;;;5068635;28;45250;-70
2022/07/11 08:03:48;;;;;;;2.00;0.90;;;22.90;44.10;;;;;;5064829;28;45315;-70
2022/07/11 08:06:14;;;;;;;1.02;0.75;;;22.90;43.90;;;;;;5066845;28;45356;-70
2022/07/11 08:08:41;;;;;;;1.60;0.80;;;22.90;43.80;;;;;;5067534;28;45403;-71
2022/07/11 08:11:09;;;;;;;0.77;0.77;;;22.90;43.80;;;;;;5067619;28;45332;-70
2022/07/11 08:13:37;;;;;;;0.70;0.70;;;22.90;43.60;;;;;;5067939;28;45310;-71
2022/07/11 08:16:05;;;;;;;0.98;0.70;;;23.00;43.90;;;;;;5067901;28;45266;-70
2022/07/11 08:18:31;;;;;;;1.63;0.88;;;23.00;44.30;;;;;;5068124;28;45369;-70
2022/07/11 08:20:58;;;;;;;1.45;0.90;;;23.00;44.00;;;;;;5067454;28;46407;-71
2022/07/11 08:23:25;;;;;;;1.45;0.85;;;23.10;43.90;;;;;;5066988;28;45293;-70
2022/07/11 08:25:52;;;;;;;1.20;0.93;;;23.20;43.10;;;;;;5067968;28;45373;-71
2022/07/11 08:28:20;;;;;;;0.77;0.65;;;23.20;42.60;;;;;;5068034;28;45225;-70
2022/07/11 08:30:47;;;;;;;1.77;1.10;;;23.20;42.90;;;;;;5067618;28;45481;-70
2022/07/11 08:33:14;;;;;;;0.80;0.80;;;23.20;42.80;;;;;;5067567;28;45248;-71
2022/07/11 08:35:41;;;;;;;1.40;0.90;;;23.20;42.90;;;;;;5067703;28;45336;-71
2022/07/11 08:38:08;;;;;;;0.70;0.70;;;23.20;42.50;;;;;;5067836;28;45385;-71
2022/07/11 08:40:35;;;;;;;0.68;0.65;;;23.20;42.50;;;;;;5067360;28;46587;-70
2022/07/11 08:43:01;;;;;;;0.98;0.73;;;23.30;42.50;;;;;;5067484;28;45245;-71
2022/07/11 08:45:31;;;;;;;0.82;0.65;;;23.40;42.40;;;;;;5066923;28;45252;-71
2022/07/11 08:47:58;;;;;;;1.20;0.70;;;23.40;42.20;;;;;;5067690;28;45402;-71
2022/07/11 08:50:26;;;;;;;1.85;0.75;;;23.40;42.00;;;;;;5067244;28;45591;-71
2022/07/11 08:52:54;;;;;;;1.13;0.55;;;23.50;42.00;;;;;;5066427;28;45257;-71
2022/07/11 08:55:21;;;;;;;0.80;0.80;;;23.50;41.90;;;;;;5067238;28;45327;-71
2022/07/11 08:57:48;;;;;;;0.88;0.60;;;23.60;41.90;;;;;;5067484;28;45350;-71
2022/07/11 09:00:15;;;;;;;0.60;0.60;;;23.70;42.00;;;;;;5065577;28;47338;-71
2022/07/11 09:02:44;;;;;;;0.88;0.88;;;23.70;42.20;;;;;;5066288;28;45406;-71
2022/07/11 09:05:11;;;;;;;1.00;0.70;;;23.70;42.20;;;;;;5065848;28;45308;-71
2022/07/11 09:07:43;;;;;;;2.45;0.70;;;23.80;42.00;;;;;;5066382;28;45402;-71
2022/07/11 09:10:10;;;;;;;0.95;0.80;;;23.80;41.90;;;;;;5066175;28;46375;-71
2022/07/11 09:12:37;;;;;;;2.40;0.70;;;23.80;42.00;;;;;;5066203;28;45306;-71
2022/07/11 09:15:04;;;;;;;4.32;0.65;;;23.80;42.00;;;;;;5066339;28;45227;-71
2022/07/11 09:17:31;;;;;;;1.00;0.70;;;23.80;41.80;;;;;;5066404;28;45185;-71
2022/07/11 09:20:00;;;;;;;0.63;0.63;;;23.90;41.70;;;;;;5066105;28;46704;-71
2022/07/11 09:25:21;;;;;;;1.35;0.65;;;23.90;41.30;;;;;;5063452;28;45291;-71
2022/07/11 09:27:48;;;;;;;0.88;0.57;;;24.10;41.30;;;;;;5066423;28;45299;-71
2022/07/11 09:30:23;;;;;;;1.13;0.80;;;24.10;41.30;;;;;;5065774;28;46515;-71
2022/07/11 09:32:57;;;;;;;0.73;0.60;;;24.10;41.20;;;;;;5065815;28;45575;-71
2022/07/11 09:35:27;;;;;;;1.70;0.80;;;24.10;41.30;;;;;;5066195;28;45203;-71
2022/07/11 09:37:54;;;;;;;0.75;0.75;;;24.20;41.50;;;;;;5066032;28;45437;-71
2022/07/11 09:40:22;;;;;;;1.23;0.88;;;24.20;41.60;;;;;;5065789;28;46358;-71
2022/07/11 09:42:50;;;;;;;1.10;0.70;;;24.30;41.30;;;;;;5065885;28;45183;-71
2022/07/11 09:45:17;;;;;;;0.80;0.80;;;24.20;41.20;;;;;;5065849;28;45235;-71
2022/07/11 09:47:45;;;;;;;0.65;0.65;;;24.30;41.30;;;;;;5066006;28;45301;-71
2022/07/11 09:50:12;;;;;;;1.75;0.82;;;24.30;40.90;;;;;;5065695;28;46427;-71
2022/07/11 09:52:42;;;;;;;0.80;0.80;;;24.30;40.90;;;;;;5065659;28;45273;-71
2022/07/11 09:55:09;;;;;;;0.70;0.70;;;24.30;40.40;;;;;;5065653;28;45295;-71
2022/07/11 09:57:37;;;;;;;0.65;0.65;;;24.40;40.60;;;;;;5065878;28;45439;-71
2022/07/11 10:00:05;;;;;;;0.85;0.60;;;24.40;40.50;;;;;;5065681;28;46707;-71
2022/07/11 10:02:31;;;;;;;1.63;0.68;;;24.50;40.50;;;;;;5065395;28;45248;-72
2022/07/11 10:04:58;;;;;;;0.85;0.70;;;24.60;40.60;;;;;;5065236;28;45187;-71
2022/07/11 10:07:25;;;;;;;1.02;0.70;;;24.60;41.00;;;;;;5065830;28;45221;-71
2022/07/11 10:09:53;;;;;;;2.13;0.90;;;24.60;41.20;;;;;;5065485;28;46389;-71
2022/07/11 10:12:21;;;;;;;1.00;1.00;;;24.60;41.50;;;;;;5065472;28;45215;-71
2022/07/11 10:14:47;;;;;;;1.55;1.20;;;24.60;42.00;;;;;;5065262;28;45274;-71
2022/07/11 10:17:16;;;;;;;1.20;1.10;;;24.70;42.50;;;;;;5065612;28;45246;-71
2022/07/11 10:19:46;;;;;;;1.33;0.82;;;24.70;42.40;;;;;;5065057;28;46726;-71
2022/07/11 10:22:17;;;;;;;1.13;1.00;;;24.80;42.60;;;;;;5065343;28;45289;-71
2022/07/11 10:24:48;;;;;;;2.45;1.00;;;24.90;42.50;;;;;;5065331;28;45283;-72
2022/07/11 10:27:22;;;;;;;2.10;1.10;;;24.90;42.40;;;;;;5065581;28;45284;-71
2022/07/11 10:29:50;;;;;;;1.65;1.00;;;25.00;42.50;;;;;;5064955;28;46409;-71
2022/07/11 10:32:19;;;;;;;0.90;0.90;;;25.00;42.40;;;;;;5065107;28;45314;-71
2022/07/11 10:34:46;;;;;;;1.10;1.10;;;25.00;42.50;;;;;;5065232;28;45319;-71
2022/07/11 10:37:13;;;;;;;2.20;1.00;;;25.10;42.50;;;;;;5065375;28;45422;-71
2022/07/11 10:39:46;;;;;;;1.38;1.17;;;25.10;42.50;;;;;;5064861;28;47423;-69
2022/07/11 10:42:21;;;;;;;1.83;1.15;;;25.10;42.50;;;;;;5065149;28;45221;-69
2022/07/11 10:44:49;;;;;;;3.17;1.00;;;25.20;42.60;;;;;;5065034;28;45269;-69
2022/07/11 10:47:36;;;;;;;1.23;1.15;;;25.30;42.80;;;;;;5065243;28;45439;-69
2022/07/11 10:50:08;;;;;;;2.65;1.10;;;25.20;42.70;;;;;;5064599;28;45733;-68
2022/07/11 10:52:36;;;;;;;0.90;0.90;;;25.30;42.80;;;;;;5065108;28;45396;-68
2022/07/11 10:55:08;;;;;;;2.28;1.20;;;25.30;42.90;;;;;;5064983;28;45281;-69
2022/07/11 10:57:42;;;;;;;1.27;1.00;;;25.40;42.80;;;;;;5066286;28;45233;-68
2022/07/11 11:00:11;;;;;;;1.48;1.27;;;25.40;42.60;;;;;;5066180;28;45462;-69
2022/07/11 11:03:00;;;;;;;1.20;1.20;;;25.40;42.40;;;;;;5064783;28;45285;-68
2022/07/11 11:05:43;;;;;;;1.98;1.50;;;25.50;42.50;;;;;;5065051;28;45188;-68
2022/07/11 11:08:43;;;;;;;1.30;1.08;;;25.50;42.70;;;;;;5065060;28;45553;-68
2022/07/11 11:11:37;;;;;;;3.05;1.40;;;25.60;42.60;;;;;;5064809;28;46989;-68
2022/07/11 11:14:25;;;;;;;1.20;1.10;;;25.60;42.40;;;;;;5065023;28;45275;-69
2022/07/11 11:16:52;;;;;;;1.20;1.10;;;25.60;42.40;;;;;;5067624;28;45204;-68
2022/07/11 11:19:51;;;;;;;1.30;1.30;;;25.70;42.40;;;;;;5068739;28;45300;-68
2022/07/11 11:22:18;;;;;;;1.10;1.10;;;25.80;42.40;;;;;;5068184;28;45224;-69
2022/07/11 11:24:46;;;;;;;1.27;1.10;;;25.80;42.40;;;;;;5068269;28;45323;-69
2022/07/11 11:27:17;;;;;;;1.00;1.00;;;25.90;42.60;;;;;;5068307;28;45391;-69
2022/07/11 11:29:45;;;;;;;1.40;1.27;;;26.00;42.50;;;;;;5068354;28;45189;-69
2022/07/11 11:32:12;;;;;;;0.80;0.80;;;26.00;42.30;;;;;;5067703;28;45379;-69
2022/07/11 11:34:40;;;;;;;2.60;1.40;;;26.10;42.30;;;;;;5067823;28;45364;-68
2022/07/11 11:37:06;;;;;;;1.83;1.10;;;26.20;42.10;;;;;;5068280;28;45232;-69
2022/07/11 11:39:34;;;;;;;1.80;1.00;;;26.20;42.00;;;;;;5068103;28;45234;-68
2022/07/11 11:42:06;;;;;;;1.20;1.10;;;26.30;41.90;;;;;;5067790;28;46680;-69
2022/07/11 11:44:33;;;;;;;1.95;1.00;;;26.40;41.70;;;;;;5067899;28;45290;-69
2022/07/11 11:47:01;;;;;;;1.40;1.10;;;26.40;41.60;;;;;;5067932;28;45211;-68
2022/07/11 11:49:28;;;;;;;1.33;1.20;;;26.40;41.70;;;;;;5068231;28;45346;-68
2022/07/11 11:51:56;;;;;;;1.45;1.30;;;26.50;41.70;;;;;;5067865;28;46245;-69
2022/07/11 11:54:24;;;;;;;1.17;1.17;;;26.50;41.70;;;;;;5067684;28;45541;-69
2022/07/11 11:56:50;;;;;;;3.08;1.00;;;26.60;41.80;;;;;;5067538;28;45390;-68
2022/07/11 11:59:17;;;;;;;3.70;1.58;;;26.70;41.80;;;;;;5067809;28;45514;-69
2022/07/11 12:01:45;;;;;;;1.10;1.10;;;26.70;41.70;;;;;;5067148;28;45255;-68
2022/07/11 12:04:14;;;;;;;1.20;1.10;;;26.80;41.60;;;;;;5067979;28;45231;-68
2022/07/11 12:06:41;;;;;;;1.65;1.50;;;26.80;41.40;;;;;;5067647;28;45445;-68
2022/07/11 12:09:09;;;;;;;1.27;1.17;;;26.90;42.10;;;;;;5067564;28;45311;-70
2022/07/11 12:11:36;;;;;;;2.70;1.63;;;26.90;41.50;;;;;;5067039;28;46624;-69
2022/07/11 12:14:04;;;;;;;3.55;1.70;;;27.00;41.50;;;;;;5066307;28;45451;-69
2022/07/11 12:16:41;;;;;;;1.33;1.23;;;27.00;41.30;;;;;;5067374;28;45426;-72
2022/07/11 12:19:09;;;;;;;1.08;1.00;;;27.10;41.30;;;;;;5067475;28;45267;-68
2022/07/11 12:21:37;;;;;;;1.45;1.35;;;27.10;41.10;;;;;;5066863;28;46681;-68
2022/07/11 12:24:04;;;;;;;1.08;1.08;;;27.20;41.10;;;;;;5066890;28;45248;-69
2022/07/11 12:26:33;;;;;;;1.33;1.30;;;27.20;41.00;;;;;;5062077;28;45530;-69
2022/07/11 12:29:05;;;;;;;1.30;1.20;;;27.30;41.30;;;;;;5066569;28;45549;-69
2022/07/11 12:31:42;;;;;;;1.48;1.10;;;27.30;41.30;;;;;;5061311;28;45467;-68
2022/07/11 12:34:08;;;;;;;3.38;1.20;;;27.40;41.10;;;;;;5069028;28;45298;-70
2022/07/11 12:36:36;;;;;;;1.90;1.20;;;27.50;41.00;;;;;;5063694;28;45275;-72
2022/07/11 12:39:04;;;;;;;2.28;1.02;;;27.50;40.90;;;;;;5064661;28;45477;-72
2022/07/11 12:41:31;;;;;;;1.35;1.20;;;27.60;41.00;;;;;;5067910;28;46685;-72
2022/07/11 12:46:42;;;;;;;3.50;1.30;;;27.80;40.70;;;;;;5063714;28;45367;-71
2022/07/11 12:49:09;;;;;;;1.58;1.45;;;27.80;40.40;;;;;;5065256;28;45556;-71
2022/07/11 12:51:39;;;;;;;1.33;1.10;;;27.90;40.50;;;;;;5066355;28;45367;-71
2022/07/11 12:54:08;;;;;;;2.47;1.13;;;27.90;40.40;;;;;;5065556;28;45248;-70
2022/07/11 12:56:34;;;;;;;3.60;1.23;;;28.00;40.20;;;;;;5064283;28;45273;-70
2022/07/11 12:59:02;;;;;;;2.22;1.20;;;28.00;40.90;;;;;;5046247;28;45477;-69
2022/07/11 13:01:29;;;;;;;1.20;1.00;;;28.00;40.30;;;;;;5052745;28;45715;-67
2022/07/11 13:03:56;;;;;;;3.45;1.40;;;28.10;40.10;;;;;;5066029;28;45448;-67